• Join FlightAware (Why Join?)
  • Login
  • US Flag 
10:26AM EDT


 

Airport Tracker/Info


-or-


 

Live Flight TrackerFlight Track Log ✈ N877PM ✈ 15-Dec-2013 ✈ KUMP - KCID

Flight Track Log - Related Links

Times and Time Zones

All times are in EST time to prevent confusion due to time zone crossing. See the N877PM flight status page for this flight to view local times or setup timezone preferences in your user account.

Time Position Orientation Groundspeed Altitude Reporting Facility
EST Latitude Longitude Course Direction KTS MPH feet Rate Location/Type
09:36PM 39.9500 -86.0500 303° West 131 151 1,400  Level Indianapolis TRACON
09:37PM 39.9667 -86.0833 303° West 145 167 4,000 3,000 Climbing Indianapolis TRACON
09:38PM 39.9842 -86.1053 316° Northwest 147 169 6,100 3,000 Climbing Indianapolis Center
09:39PM 40.0131 -86.1561 307° West 146 168 9,400 2,820 Climbing Indianapolis Center
09:40PM 40.0392 -86.2047 305° West 161 185 11,900 2,280 Climbing Indianapolis Center
09:41PM 40.0581 -86.2578 295° West 162 186 14,100 1,980 Climbing Indianapolis Center
09:42PM 40.0792 -86.3142 296° West 171 197 16,000 1,740 Climbing Indianapolis Center
09:43PM 40.1003 -86.3728 295° West 179 206 17,700 1,800 Climbing Indianapolis Center
09:43PM 40.1331 -86.4081 321° Northwest 189 217 19,100 1,980 Climbing Chicago Center
09:44PM 40.1725 -86.4561 317° Northwest 202 232 21,100 1,680 Climbing Chicago Center
09:46PM 40.1950 -86.5167 296° West 187 215 22,600 1,440 Climbing Chicago Center
09:47PM 40.2272 -86.5711 308° West 199 229 24,100 1,440 Climbing Chicago Center
09:48PM 40.2825 -86.6022 337° Northwest 214 246 25,600 1,380 Climbing Chicago Center
09:49PM 40.3386 -86.6364 335° Northwest 221 254 27,000 1,320 Climbing Chicago Center
09:50PM 40.3742 -86.7008 306° West 221 254 28,400 1,380 Climbing Chicago Center
09:51PM 40.4033 -86.7922 293° West 226 260 29,900 780 Climbing Chicago Center
09:52PM 40.4294 -86.8753 292° West 245 282 30,000  Climbing Chicago Center
09:53PM 40.4597 -86.9675 293° West 273 314 30,000  Level Chicago Center
09:54PM 40.4908 -87.0639 293° West 286 329 30,000  Level Chicago Center
09:55PM 40.5217 -87.1608 293° West 290 334 30,000  Level Chicago Center
09:56PM 40.5531 -87.2592 293° West 292 336 30,000  Level Chicago Center
09:57PM 40.5831 -87.3578 292° West 291 335 30,000  Level Chicago Center
09:58PM 40.6214 -87.4742 293° West 291 335 30,000  Level Chicago Center
09:59PM 40.6517 -87.5731 292° West 292 336 30,000  Level Chicago Center
10:00PM 40.6831 -87.6711 293° West 291 335 30,000  Level Chicago Center
10:01PM 40.7139 -87.7717 292° West 294 338 30,000  Level Chicago Center
10:02PM 40.7444 -87.8711 292° West 294 338 30,000  Level Chicago Center
10:03PM 40.7756 -87.9708 292° West 295 339 30,000  Level Chicago Center
10:04PM 40.8075 -88.0700 293° West 293 337 30,000  Level Chicago Center
10:05PM 40.8383 -88.1700 292° West 293 337 30,000  Level Chicago Center
10:06PM 40.8700 -88.2714 292° West 298 343 30,000  Level Chicago Center
10:07PM 40.9069 -88.3919 292° West 295 339 30,000  Level Chicago Center
10:08PM 40.9369 -88.4936 291° West 296 341 30,000  Level Chicago Center
10:09PM 40.9664 -88.5950 291° West 296 341 30,000  Level Chicago Center
10:10PM 40.9967 -88.6964 292° West 296 341 30,000  Level Chicago Center
10:11PM 41.0247 -88.7964 290° West 292 336 30,000  Level Chicago Center
10:12PM 41.0564 -88.9003 292° West 301 346 30,000  Level Chicago Center
10:13PM 41.0864 -89.0011 292° West 296 341 30,000  Level Chicago Center
10:14PM 41.1147 -89.1019 290° West 294 338 30,000  Level Chicago Center
10:15PM 41.1478 -89.2172 291° West 293 337 30,000  Level Chicago Center
10:16PM 41.1764 -89.3186 291° West 295 339 30,000  Level Chicago Center
10:17PM 41.2056 -89.4200 291° West 295 339 30,000  Level Chicago Center
10:18PM 41.2344 -89.5214 291° West 296 341 30,000 -840 Level Chicago Center
10:19PM 41.2633 -89.6217 291° West 294 338 28,300 -1,500 Descending Chicago Center
10:20PM 41.2919 -89.7231 291° West 294 338 27,000 -1,320 Descending Chicago Center
10:21PM 41.3211 -89.8267 291° West 298 343 25,700 -1,380 Descending Chicago Center
10:22PM 41.3514 -89.9344 291° West 308 354 24,300 -840 Descending Chicago Center
10:23PM 41.3808 -90.0392 291° West 306 352 24,000 -180 Descending Chicago Center
10:24PM 41.4136 -90.1522 291° West 280 322 24,000  Level Chicago Center
10:25PM 41.4406 -90.2514 290° West 285 328 24,000 -180 Level Chicago Center
10:26PM 41.4681 -90.3494 291° West 285 328 23,700 -960 Descending Chicago Center
10:27PM 41.4956 -90.4542 289° West 297 342 22,100 -1,740 Descending Chicago Center
10:28PM 41.5250 -90.5589 291° West 302 348 20,200 -1,980 Descending Chicago Center
10:29PM 41.5539 -90.6750 288° West 310 357 18,100 -1,980 Descending Chicago Center
10:30PM 41.5803 -90.7678 291° West 276 318 16,200 -1,980 Descending Chicago Center
10:31PM 41.6036 -90.8528 290° West 252 290 14,100 -1,980 Descending Chicago Center
10:33PM 41.6333 -90.9386 295° West 254 292 12,200 -1,560 Descending Chicago Center
10:34PM 41.6614 -91.0256 293° West 257 296 11,000 -600 Descending Chicago Center
10:35PM 41.6783 -91.1044 286° West 228 262 11,100 -600 Climbing Chicago Center
10:36PM 41.6878 -91.1931 278° West 238 274 9,900 -1,380 Descending Chicago Center
10:37PM 41.6961 -91.2822 277° West 243 280 8,400 -1,740 Descending Chicago Center
10:38PM 41.7050 -91.3639 278° West 229 264 6,400 -2,040 Descending Chicago Center
10:39PM 41.7164 -91.4514 280° West 211 243 4,300 -1,140 Descending Chicago Center
10:40PM 41.7239 -91.5283 277° West 207 238 4,100 -180 Descending Chicago Center
10:41PM 41.7369 -91.6122 282° West 214 246 4,000  Descending Chicago Center
10:42PM 41.7489 -91.7022 280° West 227 261 4,100  Climbing Chicago Center
10:43PM 41.7614 -91.7892 281° West 235 270 4,100 -180 Level Chicago Center
10:44PM 41.7750 -91.8772 282° West 238 274 3,800 -780 Descending Chicago Center
10:45PM 41.7981 -91.9547 292° West 234 269 2,600 -600 Descending Chicago Center
10:46PM 41.8436 -91.9653 350° North 202 232 2,600  Level Chicago Center
10:47PM 41.8733 -91.9311 41° Northeast 172 198 2,600  Level Chicago Center
10:48PM 41.8878 -91.8733 71° East 167 192 2,600 -120 Level Chicago Center
10:49PM 41.8856 -91.8208 93° East 155 178 2,400 -360 Descending Chicago Center
10:50PM 41.8850 -91.7681 91° East 141 162 1,900 -540 Descending Chicago Center